createdAt,value
2023-05-23T00:01:21.338Z,23.13
2023-05-23T00:03:55.961Z,28.45
2023-05-23T00:06:26.826Z,28.63
2023-05-23T00:08:54.941Z,32.35
2023-05-23T00:11:26.969Z,32.70
2023-05-23T00:13:55.047Z,31.95
2023-05-23T00:16:23.852Z,27.55
2023-05-23T00:18:53.706Z,33.13
2023-05-23T00:21:21.932Z,34.20
2023-05-23T00:23:50.476Z,31.58
2023-05-23T00:26:18.390Z,32.87
2023-05-23T00:28:47.762Z,40.78
2023-05-23T00:31:15.764Z,31.65
2023-05-23T00:33:43.819Z,33.30
2023-05-23T00:36:13.352Z,32.42
2023-05-23T00:38:41.434Z,32.65
2023-05-23T00:41:09.376Z,37.25
2023-05-23T00:43:37.222Z,30.20
2023-05-23T00:46:05.784Z,37.60
2023-05-23T00:48:34.131Z,38.97
2023-05-23T00:51:02.113Z,31.00
2023-05-23T00:53:31.748Z,40.67
2023-05-23T00:55:59.702Z,36.65
2023-05-23T00:58:27.854Z,34.50
2023-05-23T01:00:55.724Z,43.65
2023-05-23T01:03:23.931Z,38.45
2023-05-23T01:05:52.875Z,41.55
2023-05-23T01:08:23.903Z,40.17
2023-05-23T01:10:53.856Z,40.63
2023-05-23T01:13:32.068Z,42.50
2023-05-23T01:16:07.331Z,45.33
2023-05-23T01:18:41.447Z,46.60
2023-05-23T01:21:14.240Z,47.40
2023-05-23T01:24:23.853Z,50.38
2023-05-23T01:27:06.738Z,47.13
2023-05-23T01:29:40.911Z,52.72
2023-05-23T01:32:13.020Z,49.85
2023-05-23T01:34:42.428Z,47.50
2023-05-23T01:37:14.648Z,47.40
2023-05-23T01:39:43.349Z,49.30
2023-05-23T01:42:11.722Z,54.28
2023-05-23T01:44:42.449Z,50.60
2023-05-23T01:47:14.472Z,50.00
2023-05-23T01:49:44.867Z,52.17
2023-05-23T01:52:13.446Z,53.03
2023-05-23T01:54:43.712Z,55.43
2023-05-23T01:57:12.223Z,54.20
2023-05-23T01:59:41.664Z,50.55
2023-05-23T02:02:09.779Z,49.40
2023-05-23T02:04:37.845Z,53.08
2023-05-23T02:07:06.111Z,54.63
2023-05-23T02:09:34.075Z,51.57
2023-05-23T02:12:01.953Z,51.33
2023-05-23T02:14:29.908Z,49.53
2023-05-23T02:17:00.522Z,49.20
2023-05-23T02:19:28.648Z,58.80
2023-05-23T02:21:56.622Z,55.25
2023-05-23T02:24:25.618Z,52.17
2023-05-23T02:26:53.802Z,49.63
2023-05-23T02:29:21.841Z,52.30
2023-05-23T02:31:49.875Z,56.00
2023-05-23T02:34:21.477Z,53.65
2023-05-23T02:36:49.523Z,53.92
2023-05-23T02:39:17.513Z,48.90
2023-05-23T02:41:47.223Z,52.25
2023-05-23T02:44:15.259Z,56.65
2023-05-23T02:46:43.241Z,55.22
2023-05-23T02:49:11.185Z,53.80
2023-05-23T02:51:40.481Z,53.22
2023-05-23T02:54:08.385Z,49.60
2023-05-23T02:56:40.397Z,50.25
2023-05-23T02:59:08.484Z,57.27
2023-05-23T03:01:36.377Z,55.15
2023-05-23T03:04:04.549Z,52.28
2023-05-23T03:06:33.922Z,56.78
2023-05-23T03:09:03.370Z,53.72
2023-05-23T03:11:31.159Z,52.75
2023-05-23T03:14:00.839Z,51.80
2023-05-23T03:16:28.759Z,43.42
2023-05-23T03:18:56.654Z,48.47
2023-05-23T03:21:24.491Z,49.20
2023-05-23T03:23:52.395Z,50.88
2023-05-23T03:26:21.934Z,52.55
2023-05-23T03:28:50.025Z,45.63
2023-05-23T03:31:20.492Z,50.03
2023-05-23T03:33:48.364Z,48.60
2023-05-23T03:36:17.480Z,48.08
2023-05-23T03:38:45.418Z,49.03
2023-05-23T03:41:13.477Z,49.73
2023-05-23T03:43:42.735Z,47.15
2023-05-23T03:46:10.723Z,48.75
2023-05-23T03:48:42.739Z,42.45
2023-05-23T03:51:11.158Z,44.20
2023-05-23T03:53:39.076Z,45.53
2023-05-23T03:56:09.460Z,47.30
2023-05-23T03:58:37.331Z,45.47
2023-05-23T04:01:11.885Z,46.95
2023-05-23T04:03:39.937Z,35.88
2023-05-23T04:06:08.681Z,39.83
2023-05-23T04:08:41.910Z,45.13
2023-05-23T04:11:09.858Z,47.35
2023-05-23T04:13:39.725Z,47.42
2023-05-23T04:18:39.758Z,45.08
2023-05-23T04:21:09.241Z,50.47
2023-05-23T04:23:42.713Z,50.47
2023-05-23T04:26:13.129Z,49.40
2023-05-23T04:28:46.885Z,45.38
2023-05-23T04:31:14.973Z,44.13
2023-05-23T04:33:45.895Z,49.97
2023-05-23T04:36:13.961Z,49.57
2023-05-23T04:38:45.971Z,48.35
2023-05-23T04:41:16.426Z,48.20
2023-05-23T04:44:02.795Z,47.10
2023-05-23T04:46:42.305Z,50.78
2023-05-23T04:49:16.605Z,47.80
2023-05-23T04:51:44.905Z,46.73
2023-05-23T04:54:26.117Z,48.67
2023-05-23T04:56:55.273Z,42.03
2023-05-23T04:59:26.721Z,45.00
2023-05-23T05:01:54.659Z,46.03
2023-05-23T05:04:27.464Z,41.90
2023-05-23T05:06:58.129Z,39.88
2023-05-23T05:09:27.058Z,35.25
2023-05-23T05:11:54.924Z,38.88
2023-05-23T05:14:23.413Z,43.75
2023-05-23T05:16:51.505Z,44.20
2023-05-23T05:19:22.234Z,43.03
2023-05-23T05:21:56.841Z,40.15
2023-05-23T05:24:25.472Z,42.08
2023-05-23T05:26:53.896Z,39.00
2023-05-23T05:29:21.862Z,41.15
2023-05-23T05:31:53.374Z,40.17
2023-05-23T05:34:51.032Z,47.40
2023-05-23T05:37:21.475Z,45.53
2023-05-23T05:39:49.515Z,41.87
2023-05-23T05:42:17.653Z,46.10
2023-05-23T05:44:45.572Z,43.38
2023-05-23T05:47:14.095Z,42.33
2023-05-23T05:49:42.958Z,41.53
2023-05-23T05:52:11.935Z,41.88
2023-05-23T05:54:42.448Z,42.60
2023-05-23T05:57:10.834Z,38.60
2023-05-23T05:59:39.174Z,44.10
2023-05-23T06:02:08.264Z,38.63
2023-05-23T06:04:36.334Z,46.15
2023-05-23T06:07:04.542Z,43.50
2023-05-23T06:09:36.161Z,38.45
2023-05-23T06:12:05.917Z,39.72
2023-05-23T06:14:33.824Z,41.97
2023-05-23T06:17:02.274Z,42.13
2023-05-23T06:19:30.324Z,41.13
2023-05-23T06:21:58.629Z,43.05
2023-05-23T06:24:26.485Z,40.72
2023-05-23T06:26:54.452Z,42.73
2023-05-23T06:29:23.730Z,40.45
2023-05-23T06:31:51.774Z,37.28
2023-05-23T06:34:19.778Z,41.65
2023-05-23T06:36:50.732Z,39.72
2023-05-23T06:39:18.654Z,42.10
2023-05-23T06:41:46.705Z,39.35
2023-05-23T06:44:14.962Z,40.25
2023-05-23T06:46:47.975Z,44.70
2023-05-23T06:49:16.398Z,45.53
2023-05-23T06:51:46.337Z,38.70
2023-05-23T06:54:14.420Z,43.42
2023-05-23T06:56:42.779Z,46.25
2023-05-23T06:59:10.903Z,41.13
2023-05-23T07:01:40.069Z,45.40
2023-05-23T07:04:12.167Z,44.03
2023-05-23T07:06:42.598Z,43.77
2023-05-23T07:09:11.949Z,40.03
2023-05-23T07:11:41.561Z,39.67
2023-05-23T07:14:12.144Z,35.63
2023-05-23T07:16:46.426Z,33.07
2023-05-23T07:19:18.334Z,28.83
2023-05-23T07:21:50.692Z,30.27
2023-05-23T07:24:19.928Z,29.60
2023-05-23T07:26:48.625Z,26.33
2023-05-23T07:29:16.606Z,25.80
2023-05-23T07:31:47.017Z,27.60
2023-05-23T07:34:17.108Z,26.85
2023-05-23T07:36:54.131Z,28.63
2023-05-23T07:39:24.383Z,27.47
2023-05-23T07:41:53.468Z,27.67
2023-05-23T07:44:24.680Z,25.83
2023-05-23T07:46:53.759Z,24.35
2023-05-23T07:49:24.114Z,27.65
2023-05-23T07:51:52.296Z,28.08
2023-05-23T07:54:20.868Z,29.20
2023-05-23T07:56:52.342Z,27.67
2023-05-23T07:59:20.596Z,27.00
2023-05-23T08:01:51.548Z,27.13
2023-05-23T08:04:21.706Z,26.90
2023-05-23T08:07:04.360Z,27.63
2023-05-23T08:09:56.173Z,28.50
2023-05-23T08:12:26.848Z,26.43
2023-05-23T08:15:03.852Z,26.33
2023-05-23T08:17:41.017Z,27.15
2023-05-23T08:20:11.992Z,28.05
2023-05-23T08:22:41.378Z,26.40
2023-05-23T08:25:11.268Z,27.17
2023-05-23T08:27:41.373Z,24.57
2023-05-23T08:30:25.484Z,25.20
2023-05-23T08:32:54.096Z,25.23
2023-05-23T08:35:22.814Z,25.65
2023-05-23T08:37:52.590Z,23.90
2023-05-23T08:40:22.834Z,22.95
2023-05-23T08:43:04.177Z,23.20
2023-05-23T08:45:34.829Z,24.67
2023-05-23T08:48:09.417Z,21.57
2023-05-23T08:50:44.420Z,20.57
2023-05-23T08:53:20.269Z,18.73
2023-05-23T08:55:54.601Z,21.20
2023-05-23T08:58:29.975Z,20.00
2023-05-23T09:01:01.325Z,20.00
2023-05-23T09:03:29.972Z,21.25
2023-05-23T09:06:12.907Z,18.70
2023-05-23T09:08:46.047Z,20.52
2023-05-23T09:11:15.830Z,19.55
2023-05-23T09:13:48.264Z,18.20
2023-05-23T09:16:18.925Z,18.88
2023-05-23T09:18:51.428Z,20.70
2023-05-23T09:21:22.155Z,20.17
2023-05-23T09:24:13.576Z,19.50
2023-05-23T09:26:41.570Z,19.30
2023-05-23T09:29:09.584Z,18.50
2023-05-23T09:31:37.707Z,19.17
2023-05-23T09:34:06.951Z,19.73
2023-05-23T09:36:36.499Z,18.15
2023-05-23T09:39:06.471Z,16.55
2023-05-23T09:41:36.406Z,17.73
2023-05-23T09:44:10.461Z,16.15
2023-05-23T09:46:40.750Z,17.05
2023-05-23T09:49:18.148Z,17.13
2023-05-23T09:51:58.902Z,18.08
2023-05-23T09:54:27.003Z,16.13
2023-05-23T09:56:57.662Z,15.45
2023-05-23T09:59:30.033Z,15.27
2023-05-23T10:01:58.697Z,16.85
2023-05-23T10:04:33.342Z,17.43
2023-05-23T10:07:09.076Z,17.27
2023-05-23T10:09:41.623Z,15.82
2023-05-23T10:12:40.847Z,15.60
2023-05-23T10:15:10.809Z,15.00
2023-05-23T10:17:53.805Z,15.40
2023-05-23T10:20:26.937Z,14.77
2023-05-23T10:22:56.046Z,13.35
2023-05-23T10:25:26.734Z,14.70
2023-05-23T10:28:01.629Z,15.37
2023-05-23T10:30:31.328Z,14.80
2023-05-23T10:33:00.628Z,14.88
2023-05-23T10:35:40.188Z,14.02
2023-05-23T10:38:14.849Z,13.13
2023-05-23T10:40:54.652Z,13.27
2023-05-23T10:43:32.277Z,11.82
2023-05-23T10:46:00.735Z,12.20
2023-05-23T10:48:35.862Z,12.03
2023-05-23T10:51:06.048Z,11.00
2023-05-23T10:53:36.989Z,10.40
2023-05-23T10:56:08.331Z,10.30
2023-05-23T10:58:39.901Z,11.40
2023-05-23T11:01:10.020Z,11.18
2023-05-23T11:03:54.174Z,10.50
2023-05-23T11:06:32.076Z,10.60
2023-05-23T11:09:07.029Z,11.43
2023-05-23T11:12:02.724Z,10.93
2023-05-23T11:14:55.679Z,10.02
2023-05-23T11:17:33.653Z,9.88
2023-05-23T11:20:06.444Z,9.57
2023-05-23T11:22:43.874Z,9.07
2023-05-23T11:25:13.524Z,9.00
2023-05-23T11:27:42.440Z,10.07
2023-05-23T11:30:15.031Z,10.23
2023-05-23T11:32:43.799Z,11.27
2023-05-23T11:35:12.347Z,12.50
2023-05-23T11:37:40.770Z,12.25
2023-05-23T11:40:28.998Z,12.20
2023-05-23T11:42:57.498Z,11.55
2023-05-23T11:45:27.487Z,12.50
2023-05-23T11:47:55.996Z,10.32
2023-05-23T11:50:24.905Z,11.18
2023-05-23T11:52:56.314Z,10.77
2023-05-23T11:55:24.733Z,10.35
2023-05-23T11:57:53.133Z,11.20
2023-05-23T12:00:21.545Z,11.13
2023-05-23T12:02:50.884Z,10.13
2023-05-23T12:05:18.901Z,10.38
2023-05-23T12:07:48.377Z,8.97
2023-05-23T12:10:17.553Z,9.90
2023-05-23T12:12:46.146Z,9.37
2023-05-23T12:15:15.265Z,9.10
2023-05-23T12:18:04.509Z,8.75
2023-05-23T12:20:38.950Z,8.20
2023-05-23T12:23:10.320Z,8.83
2023-05-23T12:25:42.836Z,8.90
2023-05-23T12:28:13.925Z,8.52
2023-05-23T12:30:44.892Z,10.00
2023-05-23T12:33:13.477Z,9.93
2023-05-23T12:35:46.119Z,8.98
2023-05-23T12:38:18.007Z,8.47
2023-05-23T12:40:46.194Z,8.90
2023-05-23T12:43:16.821Z,8.35
2023-05-23T12:45:44.889Z,7.78
2023-05-23T12:48:12.989Z,8.00
2023-05-23T12:50:41.471Z,8.60
2023-05-23T12:53:17.923Z,7.85
2023-05-23T12:55:45.822Z,8.30
2023-05-23T12:58:16.372Z,7.65
2023-05-23T13:00:44.495Z,7.23
2023-05-23T13:03:12.662Z,7.37
2023-05-23T13:05:41.042Z,6.60
2023-05-23T13:08:09.331Z,6.82
2023-05-23T13:10:39.352Z,6.75
2023-05-23T13:13:07.751Z,6.47
2023-05-23T13:15:38.650Z,6.13
2023-05-23T13:18:07.183Z,6.05
2023-05-23T13:20:35.280Z,6.57
2023-05-23T13:23:03.318Z,5.20
2023-05-23T13:25:31.511Z,6.10
2023-05-23T13:28:01.924Z,5.72
2023-05-23T13:30:32.374Z,5.87
2023-05-23T13:33:00.638Z,6.45
2023-05-23T13:35:28.731Z,6.35
2023-05-23T13:37:57.052Z,5.85
2023-05-23T13:40:25.125Z,5.88
2023-05-23T13:42:53.482Z,5.70
2023-05-23T13:45:23.377Z,5.60
2023-05-23T13:47:52.638Z,5.72
2023-05-23T13:50:26.286Z,5.13
2023-05-23T13:52:56.131Z,5.17
2023-05-23T13:55:24.284Z,5.53
2023-05-23T14:02:21.812Z,5.43
2023-05-23T14:04:50.192Z,5.50
2023-05-23T14:07:19.103Z,6.25
2023-05-23T14:09:47.094Z,4.90
2023-05-23T14:12:16.594Z,5.70
2023-05-23T14:14:44.768Z,4.60
2023-05-23T14:17:17.004Z,6.10
2023-05-23T14:19:47.504Z,5.57
2023-05-23T14:23:07.296Z,5.40
2023-05-23T14:25:35.404Z,5.05
2023-05-23T14:28:09.435Z,5.05
2023-05-23T14:30:37.368Z,5.23
2023-05-23T14:33:18.901Z,4.55
2023-05-23T14:35:48.900Z,4.73
2023-05-23T14:38:16.914Z,4.88
2023-05-23T14:40:45.087Z,4.60
2023-05-23T14:43:13.214Z,4.68
2023-05-23T14:45:41.455Z,4.20
2023-05-23T14:48:11.534Z,3.80
2023-05-23T14:50:40.775Z,3.70
2023-05-23T14:53:10.776Z,3.63
2023-05-23T14:55:38.957Z,4.15
2023-05-23T14:58:07.194Z,4.47
2023-05-23T15:00:35.238Z,3.88
2023-05-23T15:03:03.623Z,3.80
2023-05-23T15:05:31.576Z,4.15
2023-05-23T15:07:59.705Z,4.10
2023-05-23T15:10:29.041Z,4.75
2023-05-23T15:12:57.323Z,4.10
2023-05-23T15:15:36.990Z,4.80
2023-05-23T15:18:08.022Z,3.90
2023-05-23T15:20:37.059Z,3.55
2023-05-23T15:23:05.053Z,3.70
2023-05-23T15:25:48.946Z,3.60
2023-05-23T15:28:18.020Z,3.35
2023-05-23T15:30:45.978Z,4.07
2023-05-23T15:33:15.894Z,4.90
2023-05-23T15:35:44.209Z,4.40
2023-05-23T15:38:14.351Z,4.70
2023-05-23T15:40:45.265Z,4.47
2023-05-23T15:43:13.254Z,4.57
2023-05-23T15:45:41.217Z,4.53
2023-05-23T15:48:09.672Z,4.10
2023-05-23T15:50:38.518Z,4.30
2023-05-23T15:53:06.625Z,4.40
2023-05-23T15:55:34.534Z,5.07
2023-05-23T15:58:03.995Z,5.10
2023-05-23T16:00:31.906Z,5.15
2023-05-23T16:02:59.966Z,5.15
2023-05-23T16:05:28.133Z,6.03
2023-05-23T16:07:56.307Z,6.50
2023-05-23T16:10:24.720Z,7.03
2023-05-23T16:12:52.728Z,8.23
2023-05-23T16:15:22.114Z,7.43
2023-05-23T16:17:52.559Z,6.37
2023-05-23T16:20:20.593Z,5.65
2023-05-23T16:22:48.572Z,7.60
2023-05-23T16:25:19.385Z,7.60
2023-05-23T16:27:47.560Z,7.35
2023-05-23T16:30:15.705Z,7.65
2023-05-23T16:32:46.782Z,8.13
2023-05-23T16:35:14.697Z,8.50
2023-05-23T16:37:48.141Z,8.35
2023-05-23T16:40:19.517Z,8.75
2023-05-23T16:42:51.642Z,8.35
2023-05-23T16:45:21.223Z,8.25
2023-05-23T16:47:52.027Z,9.43
2023-05-23T16:50:22.993Z,8.20
2023-05-23T16:52:56.498Z,8.40
2023-05-23T16:55:27.882Z,8.60
2023-05-23T16:57:56.518Z,8.73
2023-05-23T17:00:25.572Z,9.27
2023-05-23T17:02:58.576Z,8.50
2023-05-23T17:05:27.892Z,7.87
2023-05-23T17:07:57.030Z,8.45
2023-05-23T17:10:27.889Z,8.20
2023-05-23T17:12:56.023Z,8.33
2023-05-23T17:15:25.243Z,7.60
2023-05-23T17:17:57.303Z,7.60
2023-05-23T17:20:30.349Z,6.57
2023-05-23T17:22:58.530Z,6.35
2023-05-23T17:25:27.233Z,6.55
2023-05-23T17:27:56.860Z,5.47
2023-05-23T17:30:28.356Z,5.22
2023-05-23T17:33:01.217Z,5.03
2023-05-23T17:35:30.659Z,5.00
2023-05-23T17:37:58.654Z,4.80
2023-05-23T17:40:27.123Z,5.05
2023-05-23T17:42:55.013Z,5.93
2023-05-23T17:45:23.237Z,4.72
2023-05-23T17:47:51.214Z,4.68
2023-05-23T17:50:19.538Z,4.50
2023-05-23T17:52:49.473Z,4.80
2023-05-23T17:55:17.463Z,4.20
2023-05-23T17:57:45.437Z,4.38
2023-05-23T18:00:16.825Z,5.10
2023-05-23T18:02:45.053Z,3.60
2023-05-23T18:05:15.774Z,4.25
2023-05-23T18:07:43.894Z,3.50
2023-05-23T18:10:13.380Z,3.10
2023-05-23T18:12:41.889Z,4.00
2023-05-23T18:15:11.291Z,3.80
2023-05-23T18:17:39.520Z,3.40
2023-05-23T18:20:09.597Z,3.53
2023-05-23T18:22:37.565Z,3.60
2023-05-23T18:25:06.859Z,3.97
2023-05-23T18:27:36.279Z,3.67
2023-05-23T18:30:04.435Z,4.10
2023-05-23T18:32:32.472Z,3.13
2023-05-23T18:35:00.504Z,3.33
2023-05-23T18:37:28.470Z,3.67
2023-05-23T18:39:59.299Z,2.80
2023-05-23T18:42:27.269Z,4.55
2023-05-23T18:45:00.137Z,3.00
2023-05-23T18:47:30.516Z,2.65
2023-05-23T18:49:58.804Z,3.35
2023-05-23T18:52:27.038Z,4.65
2023-05-23T18:54:55.302Z,2.70
2023-05-23T18:57:23.650Z,3.13
2023-05-23T18:59:51.894Z,2.70
2023-05-23T19:02:21.589Z,3.00
2023-05-23T19:04:49.808Z,2.70
2023-05-23T19:07:17.812Z,2.70
2023-05-23T19:09:50.965Z,2.85
2023-05-23T19:12:18.915Z,3.35
2023-05-23T19:14:47.121Z,3.78
2023-05-23T19:17:15.182Z,3.00
2023-05-23T19:19:44.759Z,3.17
2023-05-23T19:22:12.914Z,4.53
2023-05-23T19:24:40.842Z,2.70
2023-05-23T19:27:11.333Z,3.60
2023-05-23T19:29:39.370Z,3.10
2023-05-23T19:32:07.310Z,3.80
2023-05-23T19:34:35.449Z,3.67
2023-05-23T19:37:04.753Z,3.45
2023-05-23T19:39:32.741Z,3.20
2023-05-23T19:42:00.882Z,2.80
2023-05-23T19:44:31.467Z,3.05
2023-05-23T19:46:59.439Z,3.05
2023-05-23T19:49:27.378Z,3.15
2023-05-23T19:51:55.459Z,3.03
2023-05-23T19:54:24.766Z,3.67
2023-05-23T19:56:52.717Z,4.20
2023-05-23T19:59:23.695Z,3.80
2023-05-23T20:01:51.799Z,3.50
2023-05-23T20:04:20.423Z,3.53
2023-05-23T20:06:48.735Z,3.70
2023-05-23T20:09:17.643Z,3.60
2023-05-23T20:11:47.876Z,3.47
2023-05-23T20:14:16.007Z,4.38
2023-05-23T20:16:43.992Z,3.58
2023-05-23T20:19:12.048Z,3.70
2023-05-23T20:21:40.101Z,3.75
2023-05-23T20:24:08.175Z,3.97
2023-05-23T20:26:36.116Z,4.10
2023-05-23T20:29:05.384Z,3.90
2023-05-23T20:31:35.928Z,3.70
2023-05-23T20:34:03.987Z,3.60
2023-05-23T20:36:31.947Z,4.00
2023-05-23T20:39:00.281Z,4.15
2023-05-23T20:41:29.518Z,3.72
2023-05-23T20:43:57.591Z,4.32
2023-05-23T20:46:27.665Z,4.40
2023-05-23T20:48:57.458Z,4.28
2023-05-23T20:51:25.509Z,3.92
2023-05-23T20:53:54.162Z,4.23
2023-05-23T20:56:24.521Z,4.10
2023-05-23T20:58:54.948Z,4.82
2023-05-23T21:01:26.827Z,3.63
2023-05-23T21:03:55.631Z,3.92
2023-05-23T21:06:23.793Z,3.92
2023-05-23T21:08:51.736Z,4.03
2023-05-23T21:11:19.760Z,3.83
2023-05-23T21:13:47.749Z,3.97
2023-05-23T21:16:16.054Z,6.27
2023-05-23T21:18:45.413Z,4.15
2023-05-23T21:21:13.359Z,4.00
2023-05-23T21:23:41.428Z,3.63
2023-05-23T21:26:09.358Z,3.80
2023-05-23T21:28:37.329Z,3.92
2023-05-23T21:31:06.521Z,4.00
2023-05-23T21:33:34.434Z,3.78
2023-05-23T21:36:03.937Z,5.43
2023-05-23T21:38:32.037Z,3.90
2023-05-23T21:41:00.147Z,3.77
2023-05-23T21:43:28.141Z,3.93
2023-05-23T21:45:56.208Z,4.47
2023-05-23T21:48:24.328Z,3.80
2023-05-23T21:50:52.260Z,4.60
2023-05-23T21:53:21.597Z,3.80
2023-05-23T21:55:49.515Z,3.83
2023-05-23T21:58:17.393Z,4.35
2023-05-23T22:00:46.009Z,3.92
2023-05-23T22:03:14.017Z,3.90
2023-05-23T22:05:42.168Z,4.30
2023-05-23T22:08:10.222Z,4.30
2023-05-23T22:10:40.727Z,3.97
2023-05-23T22:13:09.562Z,4.30
2023-05-23T22:15:37.505Z,5.97
2023-05-23T22:18:06.643Z,4.10
2023-05-23T22:20:38.854Z,3.97
2023-05-23T22:23:07.552Z,4.57
2023-05-23T22:25:35.574Z,4.35
2023-05-23T22:28:05.020Z,4.10
2023-05-23T22:30:32.904Z,5.93
2023-05-23T22:33:02.523Z,4.75
2023-05-23T22:35:32.070Z,4.55
2023-05-23T22:38:00.204Z,4.10
2023-05-23T22:40:28.155Z,4.20
2023-05-23T22:42:56.854Z,3.95
2023-05-23T22:45:30.064Z,4.60
2023-05-23T22:47:58.206Z,3.70
2023-05-23T22:50:27.059Z,4.13
2023-05-23T22:52:55.202Z,4.40
2023-05-23T22:55:23.220Z,4.20
2023-05-23T22:57:53.736Z,4.75
2023-05-23T23:00:22.269Z,6.72
2023-05-23T23:02:53.817Z,3.80
2023-05-23T23:05:22.105Z,4.85
2023-05-23T23:07:50.468Z,4.90
2023-05-23T23:10:18.618Z,4.67
2023-05-23T23:12:46.556Z,4.57
2023-05-23T23:15:15.582Z,3.78
2023-05-23T23:17:43.617Z,3.95
2023-05-23T23:20:13.850Z,3.63
2023-05-23T23:22:42.099Z,4.03
2023-05-23T23:25:10.970Z,4.37
2023-05-23T23:27:38.914Z,4.30
2023-05-23T23:30:08.202Z,5.07
2023-05-23T23:32:36.375Z,5.32
2023-05-23T23:35:04.728Z,4.90
2023-05-23T23:37:34.102Z,3.93
2023-05-23T23:40:02.048Z,4.63
2023-05-23T23:42:30.102Z,4.75
2023-05-23T23:44:58.010Z,4.95
2023-05-23T23:47:26.150Z,4.33
2023-05-23T23:49:54.149Z,5.00
2023-05-23T23:52:22.182Z,4.37
2023-05-23T23:54:51.447Z,5.03
2023-05-23T23:57:20.581Z,4.57
2023-05-23T23:59:48.589Z,6.10
